sensor_id;sensor_type;location;lat;lon;timestamp;P1;durP1;ratioP1;P2;durP2;ratioP2
30080;SDS011;16902;50.816;12.828;2022-12-29T00:02:30;4.30;;;4.10;;
30080;SDS011;16902;50.816;12.828;2022-12-29T00:07:32;4.45;;;4.15;;
30080;SDS011;16902;50.816;12.828;2022-12-29T00:12:33;4.47;;;4.00;;
30080;SDS011;16902;50.816;12.828;2022-12-29T00:17:54;3.72;;;3.47;;
30080;SDS011;16902;50.816;12.828;2022-12-29T00:22:55;3.13;;;2.92;;
30080;SDS011;16902;50.816;12.828;2022-12-29T00:28:15;3.80;;;2.75;;
30080;SDS011;16902;50.816;12.828;2022-12-29T00:33:36;3.20;;;3.00;;
30080;SDS011;16902;50.816;12.828;2022-12-29T00:38:57;2.67;;;2.47;;
30080;SDS011;16902;50.816;12.828;2022-12-29T00:44:20;3.30;;;3.00;;
30080;SDS011;16902;50.816;12.828;2022-12-29T00:49:22;2.65;;;2.45;;
30080;SDS011;16902;50.816;12.828;2022-12-29T00:54:33;2.90;;;2.70;;
30080;SDS011;16902;50.816;12.828;2022-12-29T00:59:38;3.40;;;2.90;;
30080;SDS011;16902;50.816;12.828;2022-12-29T01:04:41;3.05;;;2.80;;
30080;SDS011;16902;50.816;12.828;2022-12-29T01:09:43;4.18;;;2.97;;
30080;SDS011;16902;50.816;12.828;2022-12-29T01:15:03;3.25;;;2.72;;
30080;SDS011;16902;50.816;12.828;2022-12-29T01:20:05;3.38;;;3.10;;
30080;SDS011;16902;50.816;12.828;2022-12-29T01:25:08;3.05;;;2.80;;
30080;SDS011;16902;50.816;12.828;2022-12-29T01:30:12;3.33;;;3.03;;
30080;SDS011;16902;50.816;12.828;2022-12-29T01:35:14;2.85;;;2.65;;
30080;SDS011;16902;50.816;12.828;2022-12-29T01:40:18;3.78;;;2.78;;
30080;SDS011;16902;50.816;12.828;2022-12-29T01:45:20;3.05;;;2.85;;
30080;SDS011;16902;50.816;12.828;2022-12-29T01:50:25;3.00;;;2.80;;
30080;SDS011;16902;50.816;12.828;2022-12-29T01:55:30;3.08;;;2.80;;
30080;SDS011;16902;50.816;12.828;2022-12-29T02:00:35;3.20;;;2.90;;
30080;SDS011;16902;50.816;12.828;2022-12-29T02:10:47;3.30;;;3.00;;
30080;SDS011;16902;50.816;12.828;2022-12-29T02:36:56;3.55;;;3.28;;
30080;SDS011;16902;50.816;12.828;2022-12-29T02:52:42;3.65;;;3.42;;
30080;SDS011;16902;50.816;12.828;2022-12-29T02:57:49;4.13;;;3.70;;
30080;SDS011;16902;50.816;12.828;2022-12-29T03:03:16;3.20;;;3.00;;
30080;SDS011;16902;50.816;12.828;2022-12-29T03:13:35;3.40;;;3.10;;
30080;SDS011;16902;50.816;12.828;2022-12-29T03:19:46;5.70;;;3.08;;
30080;SDS011;16902;50.816;12.828;2022-12-29T03:24:27;3.30;;;3.10;;
30080;SDS011;16902;50.816;12.828;2022-12-29T03:29:33;3.20;;;3.00;;
30080;SDS011;16902;50.816;12.828;2022-12-29T03:34:40;3.10;;;2.90;;
30080;SDS011;16902;50.816;12.828;2022-12-29T03:39:43;2.67;;;2.47;;
30080;SDS011;16902;50.816;12.828;2022-12-29T03:44:45;3.00;;;2.80;;
30080;SDS011;16902;50.816;12.828;2022-12-29T03:49:49;2.83;;;2.60;;
30080;SDS011;16902;50.816;12.828;2022-12-29T03:54:52;3.28;;;2.97;;
30080;SDS011;16902;50.816;12.828;2022-12-29T03:59:54;2.70;;;2.60;;
30080;SDS011;16902;50.816;12.828;2022-12-29T04:04:55;3.88;;;2.95;;
30080;SDS011;16902;50.816;12.828;2022-12-29T04:09:57;2.92;;;2.72;;
30080;SDS011;16902;50.816;12.828;2022-12-29T04:15:01;3.10;;;2.78;;
30080;SDS011;16902;50.816;12.828;2022-12-29T04:20:03;4.82;;;3.22;;
30080;SDS011;16902;50.816;12.828;2022-12-29T04:25:26;3.65;;;3.35;;
30080;SDS011;16902;50.816;12.828;2022-12-29T04:30:28;3.28;;;2.97;;
30080;SDS011;16902;50.816;12.828;2022-12-29T04:35:50;3.10;;;2.90;;
30080;SDS011;16902;50.816;12.828;2022-12-29T04:40:55;3.00;;;2.80;;
30080;SDS011;16902;50.816;12.828;2022-12-29T04:45:57;3.53;;;2.80;;
30080;SDS011;16902;50.816;12.828;2022-12-29T04:51:05;3.40;;;3.20;;
30080;SDS011;16902;50.816;12.828;2022-12-29T04:56:11;5.53;;;3.33;;
30080;SDS011;16902;50.816;12.828;2022-12-29T05:01:13;3.85;;;2.95;;
30080;SDS011;16902;50.816;12.828;2022-12-29T05:06:15;3.40;;;2.90;;
30080;SDS011;16902;50.816;12.828;2022-12-29T05:11:17;3.50;;;3.08;;
30080;SDS011;16902;50.816;12.828;2022-12-29T05:16:21;4.35;;;2.97;;
30080;SDS011;16902;50.816;12.828;2022-12-29T05:21:23;4.63;;;3.05;;
30080;SDS011;16902;50.816;12.828;2022-12-29T05:26:25;4.68;;;3.63;;
30080;SDS011;16902;50.816;12.828;2022-12-29T05:31:32;3.50;;;3.20;;
30080;SDS011;16902;50.816;12.828;2022-12-29T05:36:34;3.92;;;3.63;;
30080;SDS011;16902;50.816;12.828;2022-12-29T05:41:40;3.47;;;3.17;;
30080;SDS011;16902;50.816;12.828;2022-12-29T05:46:59;3.88;;;3.13;;
30080;SDS011;16902;50.816;12.828;2022-12-29T05:52:16;2.90;;;2.70;;
30080;SDS011;16902;50.816;12.828;2022-12-29T05:57:19;3.63;;;2.92;;
30080;SDS011;16902;50.816;12.828;2022-12-29T06:02:28;2.90;;;2.70;;
30080;SDS011;16902;50.816;12.828;2022-12-29T06:07:31;3.42;;;3.22;;
30080;SDS011;16902;50.816;12.828;2022-12-29T06:12:33;2.88;;;2.60;;
30080;SDS011;16902;50.816;12.828;2022-12-29T06:17:35;2.80;;;2.60;;
30080;SDS011;16902;50.816;12.828;2022-12-29T06:22:38;3.22;;;2.45;;
30080;SDS011;16902;50.816;12.828;2022-12-29T06:27:40;2.92;;;2.50;;
30080;SDS011;16902;50.816;12.828;2022-12-29T06:32:42;2.78;;;2.58;;
30080;SDS011;16902;50.816;12.828;2022-12-29T06:37:46;2.85;;;2.65;;
30080;SDS011;16902;50.816;12.828;2022-12-29T06:42:47;3.17;;;2.70;;
30080;SDS011;16902;50.816;12.828;2022-12-29T06:48:15;2.85;;;2.10;;
30080;SDS011;16902;50.816;12.828;2022-12-29T06:53:17;3.03;;;2.63;;
30080;SDS011;16902;50.816;12.828;2022-12-29T06:58:19;3.05;;;2.72;;
30080;SDS011;16902;50.816;12.828;2022-12-29T07:03:20;3.13;;;2.60;;
30080;SDS011;16902;50.816;12.828;2022-12-29T07:08:22;2.95;;;2.65;;
30080;SDS011;16902;50.816;12.828;2022-12-29T07:13:24;3.83;;;3.10;;
30080;SDS011;16902;50.816;12.828;2022-12-29T07:18:25;3.40;;;3.10;;
30080;SDS011;16902;50.816;12.828;2022-12-29T07:23:27;3.50;;;3.20;;
30080;SDS011;16902;50.816;12.828;2022-12-29T07:28:29;3.80;;;3.15;;
30080;SDS011;16902;50.816;12.828;2022-12-29T07:33:31;4.18;;;2.88;;
30080;SDS011;16902;50.816;12.828;2022-12-29T07:38:34;3.30;;;3.10;;
30080;SDS011;16902;50.816;12.828;2022-12-29T07:43:35;4.40;;;3.10;;
30080;SDS011;16902;50.816;12.828;2022-12-29T07:49:06;4.30;;;3.50;;
30080;SDS011;16902;50.816;12.828;2022-12-29T07:54:08;3.50;;;3.30;;
30080;SDS011;16902;50.816;12.828;2022-12-29T07:59:10;3.30;;;3.10;;
30080;SDS011;16902;50.816;12.828;2022-12-29T08:04:13;3.97;;;3.60;;
30080;SDS011;16902;50.816;12.828;2022-12-29T08:09:14;3.85;;;3.55;;
30080;SDS011;16902;50.816;12.828;2022-12-29T08:14:23;3.97;;;3.58;;
30080;SDS011;16902;50.816;12.828;2022-12-29T08:19:24;6.18;;;3.38;;
30080;SDS011;16902;50.816;12.828;2022-12-29T08:24:26;3.30;;;3.08;;
30080;SDS011;16902;50.816;12.828;2022-12-29T08:29:28;3.47;;;3.28;;
30080;SDS011;16902;50.816;12.828;2022-12-29T08:34:30;5.68;;;3.53;;
30080;SDS011;16902;50.816;12.828;2022-12-29T08:39:32;3.78;;;3.47;;
30080;SDS011;16902;50.816;12.828;2022-12-29T08:44:35;7.38;;;4.20;;
30080;SDS011;16902;50.816;12.828;2022-12-29T08:49:36;3.63;;;3.33;;
30080;SDS011;16902;50.816;12.828;2022-12-29T08:54:38;3.47;;;3.28;;
30080;SDS011;16902;50.816;12.828;2022-12-29T08:59:40;7.70;;;3.60;;
30080;SDS011;16902;50.816;12.828;2022-12-29T09:04:44;4.13;;;3.83;;
30080;SDS011;16902;50.816;12.828;2022-12-29T09:09:46;3.83;;;3.50;;
30080;SDS011;16902;50.816;12.828;2022-12-29T09:14:48;3.45;;;3.25;;
30080;SDS011;16902;50.816;12.828;2022-12-29T09:19:49;4.03;;;3.67;;
30080;SDS011;16902;50.816;12.828;2022-12-29T09:24:51;4.53;;;4.13;;
30080;SDS011;16902;50.816;12.828;2022-12-29T09:29:53;4.60;;;4.30;;
30080;SDS011;16902;50.816;12.828;2022-12-29T09:34:55;5.03;;;4.70;;
30080;SDS011;16902;50.816;12.828;2022-12-29T09:39:56;4.88;;;4.50;;
30080;SDS011;16902;50.816;12.828;2022-12-29T09:55:36;5.03;;;4.72;;
30080;SDS011;16902;50.816;12.828;2022-12-29T10:00:52;4.93;;;4.53;;
30080;SDS011;16902;50.816;12.828;2022-12-29T10:11:46;4.70;;;4.38;;
30080;SDS011;16902;50.816;12.828;2022-12-29T10:27:49;5.00;;;4.68;;
30080;SDS011;16902;50.816;12.828;2022-12-29T10:32:54;4.38;;;4.07;;
30080;SDS011;16902;50.816;12.828;2022-12-29T10:48:25;4.82;;;4.53;;
30080;SDS011;16902;50.816;12.828;2022-12-29T10:58:36;5.38;;;5.07;;
30080;SDS011;16902;50.816;12.828;2022-12-29T11:03:46;6.20;;;5.57;;
30080;SDS011;16902;50.816;12.828;2022-12-29T11:08:57;6.20;;;5.68;;
30080;SDS011;16902;50.816;12.828;2022-12-29T11:19:23;6.85;;;6.15;;
30080;SDS011;16902;50.816;12.828;2022-12-29T11:24:28;6.07;;;5.50;;
30080;SDS011;16902;50.816;12.828;2022-12-29T11:29:40;6.35;;;5.80;;
30080;SDS011;16902;50.816;12.828;2022-12-29T11:34:44;7.25;;;6.55;;
30080;SDS011;16902;50.816;12.828;2022-12-29T11:50:30;7.47;;;6.88;;
30080;SDS011;16902;50.816;12.828;2022-12-29T11:55:34;7.63;;;7.07;;
30080;SDS011;16902;50.816;12.828;2022-12-29T12:00:36;7.00;;;6.30;;
30080;SDS011;16902;50.816;12.828;2022-12-29T12:05:52;7.43;;;6.65;;
30080;SDS011;16902;50.816;12.828;2022-12-29T12:21:27;7.07;;;6.53;;
30080;SDS011;16902;50.816;12.828;2022-12-29T12:26:35;6.88;;;6.43;;
30080;SDS011;16902;50.816;12.828;2022-12-29T12:31:46;6.82;;;6.35;;
30080;SDS011;16902;50.816;12.828;2022-12-29T12:47:36;7.80;;;7.30;;
30080;SDS011;16902;50.816;12.828;2022-12-29T13:14:40;8.02;;;7.53;;
30080;SDS011;16902;50.816;12.828;2022-12-29T13:25:14;6.90;;;6.45;;
30080;SDS011;16902;50.816;12.828;2022-12-29T13:30:26;7.65;;;7.07;;
30080;SDS011;16902;50.816;12.828;2022-12-29T13:41:32;6.22;;;5.82;;
30080;SDS011;16902;50.816;12.828;2022-12-29T13:46:39;7.00;;;6.57;;
30080;SDS011;16902;50.816;12.828;2022-12-29T13:51:48;7.53;;;6.80;;
30080;SDS011;16902;50.816;12.828;2022-12-29T13:57:00;6.28;;;5.88;;
30080;SDS011;16902;50.816;12.828;2022-12-29T14:02:20;6.88;;;6.38;;
30080;SDS011;16902;50.816;12.828;2022-12-29T14:07:29;7.10;;;6.70;;
30080;SDS011;16902;50.816;12.828;2022-12-29T14:12:39;6.63;;;6.22;;
30080;SDS011;16902;50.816;12.828;2022-12-29T14:17:43;6.45;;;5.97;;
30080;SDS011;16902;50.816;12.828;2022-12-29T14:22:56;6.38;;;5.75;;
30080;SDS011;16902;50.816;12.828;2022-12-29T14:27:58;5.03;;;4.55;;
30080;SDS011;16902;50.816;12.828;2022-12-29T14:33:00;3.90;;;3.60;;
30080;SDS011;16902;50.816;12.828;2022-12-29T14:38:13;4.78;;;4.47;;
30080;SDS011;16902;50.816;12.828;2022-12-29T14:43:23;4.90;;;4.50;;
30080;SDS011;16902;50.816;12.828;2022-12-29T14:48:32;5.03;;;4.53;;
30080;SDS011;16902;50.816;12.828;2022-12-29T14:53:42;4.70;;;4.38;;
30080;SDS011;16902;50.816;12.828;2022-12-29T14:58:49;4.55;;;4.15;;
30080;SDS011;16902;50.816;12.828;2022-12-29T15:04:05;3.95;;;3.70;;
30080;SDS011;16902;50.816;12.828;2022-12-29T15:14:39;3.92;;;3.60;;
30080;SDS011;16902;50.816;12.828;2022-12-29T15:19:50;4.28;;;3.97;;
30080;SDS011;16902;50.816;12.828;2022-12-29T15:24:52;4.15;;;3.78;;
30080;SDS011;16902;50.816;12.828;2022-12-29T15:29:57;4.28;;;3.97;;
30080;SDS011;16902;50.816;12.828;2022-12-29T15:35:00;5.05;;;3.47;;
30080;SDS011;16902;50.816;12.828;2022-12-29T15:40:43;3.65;;;3.38;;
30080;SDS011;16902;50.816;12.828;2022-12-29T15:45:46;3.33;;;3.00;;
30080;SDS011;16902;50.816;12.828;2022-12-29T15:50:49;4.40;;;4.13;;
30080;SDS011;16902;50.816;12.828;2022-12-29T15:55:52;3.58;;;3.38;;
30080;SDS011;16902;50.816;12.828;2022-12-29T16:01:01;3.42;;;3.22;;
30080;SDS011;16902;50.816;12.828;2022-12-29T16:06:08;3.20;;;2.95;;
30080;SDS011;16902;50.816;12.828;2022-12-29T16:11:55;3.58;;;2.80;;
30080;SDS011;16902;50.816;12.828;2022-12-29T16:16:39;3.10;;;2.90;;
30080;SDS011;16902;50.816;12.828;2022-12-29T16:21:43;3.53;;;3.30;;
30080;SDS011;16902;50.816;12.828;2022-12-29T16:26:47;3.22;;;2.92;;
30080;SDS011;16902;50.816;12.828;2022-12-29T16:37:03;3.10;;;2.80;;
30080;SDS011;16902;50.816;12.828;2022-12-29T16:42:35;3.30;;;3.05;;
30080;SDS011;16902;50.816;12.828;2022-12-29T16:47:46;3.40;;;3.10;;
30080;SDS011;16902;50.816;12.828;2022-12-29T16:52:50;4.13;;;2.88;;
30080;SDS011;16902;50.816;12.828;2022-12-29T16:57:52;3.05;;;2.75;;
30080;SDS011;16902;50.816;12.828;2022-12-29T17:02:58;3.25;;;2.90;;
30080;SDS011;16902;50.816;12.828;2022-12-29T17:08:02;4.07;;;3.67;;
30080;SDS011;16902;50.816;12.828;2022-12-29T17:13:04;4.18;;;3.40;;
30080;SDS011;16902;50.816;12.828;2022-12-29T17:18:06;3.25;;;2.95;;
30080;SDS011;16902;50.816;12.828;2022-12-29T17:23:15;3.33;;;3.03;;
30080;SDS011;16902;50.816;12.828;2022-12-29T17:28:29;4.30;;;3.90;;
30080;SDS011;16902;50.816;12.828;2022-12-29T17:33:37;5.18;;;4.68;;
30080;SDS011;16902;50.816;12.828;2022-12-29T17:38:40;5.00;;;4.55;;
30080;SDS011;16902;50.816;12.828;2022-12-29T17:43:42;5.47;;;3.58;;
30080;SDS011;16902;50.816;12.828;2022-12-29T17:48:44;5.40;;;4.72;;
30080;SDS011;16902;50.816;12.828;2022-12-29T17:53:53;6.68;;;4.28;;
30080;SDS011;16902;50.816;12.828;2022-12-29T17:58:55;5.10;;;4.60;;
30080;SDS011;16902;50.816;12.828;2022-12-29T18:03:57;5.88;;;3.65;;
30080;SDS011;16902;50.816;12.828;2022-12-29T18:08:59;4.93;;;4.45;;
30080;SDS011;16902;50.816;12.828;2022-12-29T18:14:01;4.50;;;4.10;;
30080;SDS011;16902;50.816;12.828;2022-12-29T18:19:03;5.95;;;4.03;;
30080;SDS011;16902;50.816;12.828;2022-12-29T18:24:04;4.20;;;3.80;;
30080;SDS011;16902;50.816;12.828;2022-12-29T18:29:07;4.75;;;3.65;;
30080;SDS011;16902;50.816;12.828;2022-12-29T18:34:12;5.35;;;3.85;;
30080;SDS011;16902;50.816;12.828;2022-12-29T18:39:15;5.45;;;4.00;;
30080;SDS011;16902;50.816;12.828;2022-12-29T18:44:17;5.22;;;4.10;;
30080;SDS011;16902;50.816;12.828;2022-12-29T18:49:20;4.88;;;4.15;;
30080;SDS011;16902;50.816;12.828;2022-12-29T18:59:33;3.90;;;3.03;;
30080;SDS011;16902;50.816;12.828;2022-12-29T19:04:35;3.33;;;3.10;;
30080;SDS011;16902;50.816;12.828;2022-12-29T19:09:37;4.50;;;3.45;;
30080;SDS011;16902;50.816;12.828;2022-12-29T19:14:39;3.95;;;3.40;;
30080;SDS011;16902;50.816;12.828;2022-12-29T19:19:41;3.30;;;3.00;;
30080;SDS011;16902;50.816;12.828;2022-12-29T19:24:43;3.53;;;3.17;;
30080;SDS011;16902;50.816;12.828;2022-12-29T19:29:45;3.15;;;2.88;;
30080;SDS011;16902;50.816;12.828;2022-12-29T19:34:47;2.90;;;2.60;;
30080;SDS011;16902;50.816;12.828;2022-12-29T19:39:49;2.67;;;2.47;;
30080;SDS011;16902;50.816;12.828;2022-12-29T19:44:51;2.85;;;2.65;;
30080;SDS011;16902;50.816;12.828;2022-12-29T19:49:53;2.97;;;2.78;;
30080;SDS011;16902;50.816;12.828;2022-12-29T19:54:55;3.05;;;2.75;;
30080;SDS011;16902;50.816;12.828;2022-12-29T19:59:57;2.60;;;2.35;;
30080;SDS011;16902;50.816;12.828;2022-12-29T20:04:59;2.67;;;2.47;;
30080;SDS011;16902;50.816;12.828;2022-12-29T20:10:01;3.45;;;2.25;;
30080;SDS011;16902;50.816;12.828;2022-12-29T20:15:05;3.00;;;2.70;;
30080;SDS011;16902;50.816;12.828;2022-12-29T20:20:08;3.28;;;2.40;;
30080;SDS011;16902;50.816;12.828;2022-12-29T20:25:10;3.35;;;2.67;;
30080;SDS011;16902;50.816;12.828;2022-12-29T20:30:31;2.42;;;2.20;;
30080;SDS011;16902;50.816;12.828;2022-12-29T20:35:33;2.60;;;2.30;;
30080;SDS011;16902;50.816;12.828;2022-12-29T20:40:36;2.22;;;2.08;;
30080;SDS011;16902;50.816;12.828;2022-12-29T20:45:47;3.47;;;2.42;;
30080;SDS011;16902;50.816;12.828;2022-12-29T20:50:49;1.95;;;1.85;;
30080;SDS011;16902;50.816;12.828;2022-12-29T20:55:51;2.08;;;1.90;;
30080;SDS011;16902;50.816;12.828;2022-12-29T21:00:54;1.92;;;1.80;;
30080;SDS011;16902;50.816;12.828;2022-12-29T21:05:56;2.22;;;2.03;;
30080;SDS011;16902;50.816;12.828;2022-12-29T21:11:01;5.82;;;2.33;;
30080;SDS011;16902;50.816;12.828;2022-12-29T21:16:05;2.72;;;1.92;;
30080;SDS011;16902;50.816;12.828;2022-12-29T21:21:17;2.85;;;2.08;;
30080;SDS011;16902;50.816;12.828;2022-12-29T21:26:23;2.20;;;2.00;;
30080;SDS011;16902;50.816;12.828;2022-12-29T21:31:26;2.13;;;2.00;;
30080;SDS011;16902;50.816;12.828;2022-12-29T21:36:33;4.28;;;2.10;;
30080;SDS011;16902;50.816;12.828;2022-12-29T21:41:35;2.22;;;1.67;;
30080;SDS011;16902;50.816;12.828;2022-12-29T21:46:38;3.78;;;2.10;;
30080;SDS011;16902;50.816;12.828;2022-12-29T21:51:41;2.25;;;2.10;;
30080;SDS011;16902;50.816;12.828;2022-12-29T21:56:52;2.35;;;1.88;;
30080;SDS011;16902;50.816;12.828;2022-12-29T22:01:54;2.10;;;1.90;;
30080;SDS011;16902;50.816;12.828;2022-12-29T22:07:15;3.22;;;2.17;;
30080;SDS011;16902;50.816;12.828;2022-12-29T22:12:35;3.42;;;1.65;;
30080;SDS011;16902;50.816;12.828;2022-12-29T22:17:57;4.28;;;2.50;;
30080;SDS011;16902;50.816;12.828;2022-12-29T22:23:00;2.88;;;2.00;;
30080;SDS011;16902;50.816;12.828;2022-12-29T22:28:03;3.78;;;1.95;;
30080;SDS011;16902;50.816;12.828;2022-12-29T22:33:05;5.20;;;2.30;;
30080;SDS011;16902;50.816;12.828;2022-12-29T22:38:07;2.15;;;1.95;;
30080;SDS011;16902;50.816;12.828;2022-12-29T22:43:09;6.22;;;2.35;;
30080;SDS011;16902;50.816;12.828;2022-12-29T22:48:13;2.25;;;1.88;;
30080;SDS011;16902;50.816;12.828;2022-12-29T22:53:15;5.60;;;2.30;;
30080;SDS011;16902;50.816;12.828;2022-12-29T22:58:17;4.18;;;1.80;;
30080;SDS011;16902;50.816;12.828;2022-12-29T23:03:19;3.00;;;2.00;;
30080;SDS011;16902;50.816;12.828;2022-12-29T23:08:21;2.58;;;2.05;;
30080;SDS011;16902;50.816;12.828;2022-12-29T23:13:23;3.80;;;2.08;;
30080;SDS011;16902;50.816;12.828;2022-12-29T23:18:25;2.42;;;2.20;;
30080;SDS011;16902;50.816;12.828;2022-12-29T23:23:27;3.88;;;2.28;;
30080;SDS011;16902;50.816;12.828;2022-12-29T23:28:50;3.13;;;2.33;;
30080;SDS011;16902;50.816;12.828;2022-12-29T23:34:00;2.47;;;2.15;;
30080;SDS011;16902;50.816;12.828;2022-12-29T23:39:04;5.65;;;2.20;;
30080;SDS011;16902;50.816;12.828;2022-12-29T23:44:06;3.97;;;2.42;;
30080;SDS011;16902;50.816;12.828;2022-12-29T23:49:08;4.20;;;2.47;;
30080;SDS011;16902;50.816;12.828;2022-12-29T23:54:10;5.70;;;2.92;;
30080;SDS011;16902;50.816;12.828;2022-12-29T23:59:12;7.03;;;2.90;;
